createdAt,value
2023-03-02T00:01:31.290Z,102843.38
2023-03-02T00:04:00.466Z,102850.94
2023-03-02T00:06:31.518Z,102844.19
2023-03-02T00:09:02.683Z,102844.28
2023-03-02T00:11:31.578Z,102845.13
2023-03-02T00:13:58.256Z,102846.81
2023-03-02T00:16:25.260Z,102839.84
2023-03-02T00:18:51.818Z,102839.84
2023-03-02T00:21:18.273Z,102829.44
2023-03-02T00:23:45.006Z,102836.59
2023-03-02T00:26:11.513Z,102821.16
2023-03-02T00:28:37.955Z,102824.59
2023-03-02T00:31:05.897Z,102837.41
2023-03-02T00:33:33.737Z,102829.59
2023-03-02T00:36:00.864Z,102834.66
2023-03-02T00:38:27.731Z,102829.31
2023-03-02T00:40:55.559Z,102826.78
2023-03-02T00:43:27.309Z,102836.16
2023-03-02T00:45:56.725Z,102823.25
2023-03-02T00:48:23.211Z,102825.63
2023-03-02T00:50:49.803Z,102815.41
2023-03-02T00:53:17.906Z,102830.03
2023-03-02T00:55:53.523Z,102832.63
2023-03-02T00:58:21.232Z,102830.09
2023-03-02T01:00:47.821Z,102829.16
2023-03-02T01:03:14.418Z,102830.16
2023-03-02T01:05:40.917Z,102830.31
2023-03-02T01:08:07.367Z,102834.66
2023-03-02T01:10:34.637Z,102824.38
2023-03-02T01:13:01.139Z,102825.22
2023-03-02T01:15:27.595Z,102827.06
2023-03-02T01:17:54.104Z,102827.19
2023-03-02T01:20:20.703Z,102824.69
2023-03-02T01:22:47.248Z,102829.97
2023-03-02T01:25:13.895Z,102829.97
2023-03-02T01:27:40.354Z,102831.66
2023-03-02T01:30:07.476Z,102822.91
2023-03-02T01:32:34.112Z,102820.28
2023-03-02T01:35:00.716Z,102819.59
2023-03-02T01:37:27.200Z,102811.81
2023-03-02T01:39:53.672Z,102810.13
2023-03-02T01:42:20.203Z,102808.44
2023-03-02T01:44:52.533Z,102805.03
2023-03-02T01:47:26.907Z,102799.81
2023-03-02T01:49:58.356Z,102811.25
2023-03-02T01:52:26.543Z,102810.41
2023-03-02T01:54:56.911Z,102803.47
2023-03-02T01:57:29.029Z,102814.94
2023-03-02T02:00:01.785Z,102807.94
2023-03-02T02:02:29.104Z,102807.09
2023-03-02T02:04:56.549Z,102802.84
2023-03-02T02:07:23.004Z,102801.94
2023-03-02T02:09:52.229Z,102794.31
2023-03-02T02:12:22.957Z,102809.84
2023-03-02T02:14:50.375Z,102800.25
2023-03-02T02:17:18.533Z,102796.72
2023-03-02T02:20:20.110Z,102796.72
2023-03-02T02:23:09.692Z,102802.84
2023-03-02T02:25:58.243Z,102784.56
2023-03-02T02:28:30.602Z,102782.75
2023-03-02T02:31:22.427Z,102792.13
2023-03-02T02:33:56.562Z,102778.28
2023-03-02T02:36:33.542Z,102795.59
2023-03-02T02:39:04.279Z,102793.03
2023-03-02T02:41:36.027Z,102785.28
2023-03-02T02:44:02.513Z,102784.28
2023-03-02T02:46:29.401Z,102782.75
2023-03-02T02:48:55.982Z,102772.25
2023-03-02T02:51:28.294Z,102778.28
2023-03-02T02:53:59.082Z,102779.22
2023-03-02T02:56:32.138Z,102780.91
2023-03-02T02:59:16.548Z,102771.53
2023-03-02T03:01:44.185Z,102779.34
2023-03-02T03:04:14.049Z,102765.59
2023-03-02T03:06:53.794Z,102762.13
2023-03-02T03:09:21.248Z,102764.97
2023-03-02T03:11:57.416Z,102774.41
2023-03-02T03:14:36.091Z,102765.94
2023-03-02T03:17:02.716Z,102766.81
2023-03-02T03:19:32.510Z,102772.03
2023-03-02T03:22:02.150Z,102766.88
2023-03-02T03:24:30.782Z,102761.00
2023-03-02T03:26:58.706Z,102757.19
2023-03-02T03:29:27.723Z,102757.47
2023-03-02T03:31:57.149Z,102754.09
2023-03-02T03:34:24.701Z,102757.47
2023-03-02T03:36:52.047Z,102753.41
2023-03-02T03:39:19.715Z,102747.41
2023-03-02T03:41:46.501Z,102752.69
2023-03-02T03:44:12.961Z,102761.28
2023-03-02T03:46:39.780Z,102758.66
2023-03-02T03:49:06.469Z,102757.75
2023-03-02T03:51:35.237Z,102760.50
2023-03-02T03:54:08.076Z,102756.19
2023-03-02T03:56:39.124Z,102766.63
2023-03-02T03:59:08.394Z,102770.31
2023-03-02T04:02:04.233Z,102765.84
2023-03-02T04:04:34.230Z,102761.41
2023-03-02T04:07:01.114Z,102768.97
2023-03-02T04:09:27.777Z,102779.41
2023-03-02T04:11:55.651Z,102767.28
2023-03-02T04:14:23.653Z,102766.22
2023-03-02T04:16:51.216Z,102761.66
2023-03-02T04:19:17.849Z,102753.94
2023-03-02T04:21:47.964Z,102763.34
2023-03-02T04:24:18.220Z,102755.78
2023-03-02T04:26:45.890Z,102762.69
2023-03-02T04:29:13.235Z,102761.00
2023-03-02T04:31:40.364Z,102757.47
2023-03-02T04:34:08.043Z,102769.63
2023-03-02T04:36:37.380Z,102763.69
2023-03-02T04:39:05.974Z,102762.84
2023-03-02T04:41:32.935Z,102760.09
2023-03-02T04:43:59.463Z,102760.94
2023-03-02T04:46:27.521Z,102771.25
2023-03-02T04:48:55.109Z,102764.47
2023-03-02T04:51:24.234Z,102769.88
2023-03-02T04:54:08.764Z,102770.94
2023-03-02T04:56:35.544Z,102773.63
2023-03-02T04:59:02.501Z,102771.16
2023-03-02T05:01:29.129Z,102767.97
2023-03-02T05:03:56.038Z,102775.00
2023-03-02T05:06:25.099Z,102763.88
2023-03-02T05:08:52.988Z,102766.53
2023-03-02T05:11:23.299Z,102762.47
2023-03-02T05:13:52.307Z,102759.78
2023-03-02T05:16:20.125Z,102754.78
2023-03-02T05:18:47.035Z,102765.22
2023-03-02T05:21:14.975Z,102751.53
2023-03-02T05:23:42.549Z,102751.56
2023-03-02T05:26:09.691Z,102758.84
2023-03-02T05:28:36.669Z,102756.91
2023-03-02T05:31:03.552Z,102766.44
2023-03-02T05:33:30.581Z,102765.47
2023-03-02T05:35:57.430Z,102758.69
2023-03-02T05:38:24.007Z,102757.78
2023-03-02T05:40:50.568Z,102759.34
2023-03-02T05:43:19.240Z,102752.34
2023-03-02T05:45:46.243Z,102763.66
2023-03-02T05:48:13.790Z,102754.31
2023-03-02T05:50:40.776Z,102752.47
2023-03-02T05:53:07.597Z,102751.97
2023-03-02T05:55:37.156Z,102759.63
2023-03-02T05:58:09.090Z,102761.50
2023-03-02T06:00:35.758Z,102766.56
2023-03-02T06:03:02.311Z,102772.78
2023-03-02T06:05:28.828Z,102776.31
2023-03-02T06:07:56.067Z,102777.22
2023-03-02T06:10:23.149Z,102776.31
2023-03-02T06:12:49.801Z,102781.84
2023-03-02T06:15:16.363Z,102776.44
2023-03-02T06:17:43.061Z,102773.97
2023-03-02T06:20:11.303Z,102780.75
2023-03-02T06:22:46.391Z,102794.69
2023-03-02T06:25:16.369Z,102791.09
2023-03-02T06:27:43.785Z,102795.53
2023-03-02T06:30:14.529Z,102793.03
2023-03-02T06:32:41.494Z,102790.38
2023-03-02T06:35:09.022Z,102791.47
2023-03-02T06:37:35.534Z,102790.56
2023-03-02T06:40:02.067Z,102789.78
2023-03-02T06:42:28.789Z,102796.00
2023-03-02T06:44:55.250Z,102805.44
2023-03-02T06:47:23.124Z,102808.94
2023-03-02T06:49:49.699Z,102809.09
2023-03-02T06:52:16.891Z,102807.25
2023-03-02T06:54:43.487Z,102802.03
2023-03-02T06:57:10.320Z,102808.03
2023-03-02T06:59:36.768Z,102806.34
2023-03-02T07:02:03.610Z,102802.81
2023-03-02T07:04:30.151Z,102807.91
2023-03-02T07:06:56.986Z,102811.25
2023-03-02T07:09:23.628Z,102816.34
2023-03-02T07:11:50.295Z,102815.28
2023-03-02T07:14:16.805Z,102809.88
2023-03-02T07:16:43.357Z,102809.72
2023-03-02T07:19:13.989Z,102803.47
2023-03-02T07:21:41.197Z,102806.72
2023-03-02T07:24:08.116Z,102797.06
2023-03-02T07:26:34.714Z,102814.28
2023-03-02T07:29:01.225Z,102804.44
2023-03-02T07:31:28.158Z,102798.09
2023-03-02T07:33:54.703Z,102798.03
2023-03-02T07:36:21.169Z,102797.69
2023-03-02T07:38:48.644Z,102790.63
2023-03-02T07:41:16.803Z,102804.19
2023-03-02T07:43:43.898Z,102792.78
2023-03-02T07:46:10.624Z,102789.94
2023-03-02T07:48:37.280Z,102791.50
2023-03-02T07:51:05.791Z,102792.13
2023-03-02T07:53:32.742Z,102790.25
2023-03-02T07:56:01.389Z,102797.69
2023-03-02T07:58:28.076Z,102788.72
2023-03-02T08:00:54.561Z,102784.06
2023-03-02T08:03:21.100Z,102785.53
2023-03-02T08:05:47.543Z,102793.78
2023-03-02T08:08:14.021Z,102785.03
2023-03-02T08:10:40.533Z,102794.13
2023-03-02T08:13:07.108Z,102781.84
2023-03-02T08:15:33.628Z,102783.88
2023-03-02T08:18:00.372Z,102787.88
2023-03-02T08:20:26.871Z,102787.56
2023-03-02T08:22:53.423Z,102782.88
2023-03-02T08:25:19.935Z,102786.50
2023-03-02T08:27:47.138Z,102780.81
2023-03-02T08:30:14.296Z,102785.66
2023-03-02T08:32:40.924Z,102780.19
2023-03-02T08:35:07.873Z,102776.34
2023-03-02T08:37:34.565Z,102783.72
2023-03-02T08:40:01.210Z,102770.38
2023-03-02T08:42:27.795Z,102780.28
2023-03-02T08:44:54.279Z,102785.19
2023-03-02T08:47:20.731Z,102772.88
2023-03-02T08:49:48.353Z,102781.16
2023-03-02T08:52:15.435Z,102783.91
2023-03-02T08:54:42.400Z,102778.34
2023-03-02T08:57:12.011Z,102776.31
2023-03-02T08:59:38.585Z,102780.41
2023-03-02T09:02:05.117Z,102787.81
2023-03-02T09:04:31.736Z,102778.38
2023-03-02T09:06:58.217Z,102775.41
2023-03-02T09:09:24.690Z,102775.81
2023-03-02T09:11:51.180Z,102778.97
2023-03-02T09:14:17.749Z,102774.31
2023-03-02T09:16:45.429Z,102772.00
2023-03-02T09:19:13.176Z,102771.41
2023-03-02T09:21:39.744Z,102767.50
2023-03-02T09:24:06.447Z,102775.09
2023-03-02T09:26:33.053Z,102774.75
2023-03-02T09:28:59.606Z,102777.09
2023-03-02T09:31:27.918Z,102774.75
2023-03-02T09:33:57.152Z,102772.16
2023-03-02T09:36:25.706Z,102776.03
2023-03-02T09:38:52.782Z,102784.03
2023-03-02T09:41:19.286Z,102783.50
2023-03-02T09:43:45.760Z,102788.94
2023-03-02T09:46:30.342Z,102783.16
2023-03-02T09:49:30.202Z,102770.78
2023-03-02T09:52:35.352Z,102766.47
2023-03-02T09:55:24.250Z,102758.09
2023-03-02T09:57:51.310Z,102772.91
2023-03-02T10:00:36.832Z,102774.91
2023-03-02T10:03:16.663Z,102765.41
2023-03-02T10:05:54.161Z,102777.84
2023-03-02T10:08:27.137Z,102768.75
2023-03-02T10:11:12.726Z,102776.28
2023-03-02T10:13:40.694Z,102781.63
2023-03-02T10:16:15.950Z,102772.69
2023-03-02T10:18:51.526Z,102772.00
2023-03-02T10:21:38.298Z,102763.50
2023-03-02T10:24:10.942Z,102764.81
2023-03-02T10:26:37.363Z,102762.72
2023-03-02T10:29:26.557Z,102769.25
2023-03-02T10:31:59.958Z,102751.69
2023-03-02T10:34:30.047Z,102754.53
2023-03-02T10:36:57.546Z,102752.53
2023-03-02T10:39:24.083Z,102742.31
2023-03-02T10:42:03.593Z,102744.00
2023-03-02T10:44:37.710Z,102744.00
2023-03-02T10:47:05.940Z,102745.56
2023-03-02T10:49:39.376Z,102754.59
2023-03-02T10:52:12.066Z,102745.75
2023-03-02T10:54:38.927Z,102741.22
2023-03-02T10:57:28.530Z,102739.31
2023-03-02T11:00:25.534Z,102742.25
2023-03-02T11:03:00.513Z,102733.31
2023-03-02T11:05:39.004Z,102734.03
2023-03-02T11:08:09.824Z,102726.94
2023-03-02T11:10:40.868Z,102727.84
2023-03-02T11:13:37.670Z,102727.09
2023-03-02T11:16:19.539Z,102716.34
2023-03-02T11:18:52.575Z,102716.47
2023-03-02T11:21:23.876Z,102707.97
2023-03-02T11:24:18.322Z,102698.25
2023-03-02T11:26:54.784Z,102701.41
2023-03-02T11:29:40.112Z,102702.25
2023-03-02T11:32:19.196Z,102701.31
2023-03-02T11:35:03.641Z,102695.88
2023-03-02T11:37:37.980Z,102685.56
2023-03-02T11:40:26.545Z,102693.50
2023-03-02T11:42:56.728Z,102681.72
2023-03-02T11:45:27.410Z,102682.19
2023-03-02T11:48:03.683Z,102683.63
2023-03-02T11:50:34.288Z,102673.63
2023-03-02T11:53:06.307Z,102673.28
2023-03-02T11:55:40.564Z,102668.09
2023-03-02T11:58:07.742Z,102675.66
2023-03-02T12:00:42.373Z,102653.53
2023-03-02T12:03:14.668Z,102674.03
2023-03-02T12:05:43.999Z,102658.63
2023-03-02T12:08:19.751Z,102664.16
2023-03-02T12:11:18.589Z,102661.41
2023-03-02T12:13:48.924Z,102659.78
2023-03-02T12:16:23.450Z,102661.25
2023-03-02T12:18:53.646Z,102651.78
2023-03-02T12:21:21.317Z,102639.47
2023-03-02T12:23:59.884Z,102647.56
2023-03-02T12:26:36.376Z,102636.19
2023-03-02T12:29:23.537Z,102636.38
2023-03-02T12:31:51.741Z,102636.94
2023-03-02T12:34:24.331Z,102636.75
2023-03-02T12:36:54.672Z,102629.59
2023-03-02T12:39:23.996Z,102631.66
2023-03-02T12:41:59.773Z,102623.97
2023-03-02T12:44:51.965Z,102632.63
2023-03-02T12:47:29.606Z,102617.97
2023-03-02T12:50:00.287Z,102619.56
2023-03-02T12:52:32.885Z,102623.22
2023-03-02T12:55:15.387Z,102620.19
2023-03-02T12:57:53.971Z,102614.03
2023-03-02T13:00:23.734Z,102610.72
2023-03-02T13:02:52.581Z,102605.16
2023-03-02T13:05:25.972Z,102617.72
2023-03-02T13:07:58.519Z,102609.66
2023-03-02T13:10:48.602Z,102603.50
2023-03-02T13:13:22.921Z,102604.38
2023-03-02T13:15:55.226Z,102588.47
2023-03-02T13:18:23.651Z,102579.56
2023-03-02T13:20:50.969Z,102588.78
2023-03-02T13:23:19.073Z,102584.88
2023-03-02T13:25:52.967Z,102587.94
2023-03-02T13:28:39.566Z,102581.22
2023-03-02T13:31:18.059Z,102579.84
2023-03-02T13:33:46.121Z,102578.66
2023-03-02T13:36:21.614Z,102575.75
2023-03-02T13:38:50.841Z,102582.88
2023-03-02T13:41:29.411Z,102585.41
2023-03-02T13:43:56.464Z,102581.75
2023-03-02T13:46:22.878Z,102587.78
2023-03-02T13:49:09.245Z,102588.34
2023-03-02T13:51:42.512Z,102586.94
2023-03-02T13:54:25.099Z,102593.91
2023-03-02T13:56:53.513Z,102586.38
2023-03-02T13:59:21.867Z,102586.13
2023-03-02T14:01:48.683Z,102578.38
2023-03-02T14:04:17.938Z,102578.81
2023-03-02T14:06:47.607Z,102564.31
2023-03-02T14:09:14.361Z,102573.41
2023-03-02T14:11:47.604Z,102570.03
2023-03-02T14:14:17.736Z,102566.69
2023-03-02T14:16:44.468Z,102566.28
2023-03-02T14:19:22.003Z,102566.19
2023-03-02T14:21:48.474Z,102569.69
2023-03-02T14:24:15.367Z,102551.38
2023-03-02T14:26:44.502Z,102551.50
2023-03-02T14:29:24.832Z,102544.69
2023-03-02T14:31:51.627Z,102543.94
2023-03-02T14:34:18.230Z,102555.81
2023-03-02T14:36:48.004Z,102538.94
2023-03-02T14:39:38.713Z,102536.56
2023-03-02T14:42:11.052Z,102547.91
2023-03-02T14:44:37.551Z,102542.47
2023-03-02T14:47:04.105Z,102541.59
2023-03-02T14:49:30.603Z,102540.78
2023-03-02T14:52:19.491Z,102537.44
2023-03-02T14:54:59.549Z,102540.22
2023-03-02T14:57:28.687Z,102532.53
2023-03-02T14:59:56.570Z,102538.00
2023-03-02T15:02:26.945Z,102528.50
2023-03-02T15:04:57.602Z,102521.75
2023-03-02T15:07:26.326Z,102523.97
2023-03-02T15:09:52.842Z,102525.38
2023-03-02T15:12:19.408Z,102517.47
2023-03-02T15:14:45.896Z,102516.19
2023-03-02T15:17:12.423Z,102517.97
2023-03-02T15:19:38.925Z,102522.13
2023-03-02T15:22:05.462Z,102522.69
2023-03-02T15:24:33.358Z,102510.22
2023-03-02T15:27:00.581Z,102513.44
2023-03-02T15:29:27.195Z,102511.63
2023-03-02T15:31:53.851Z,102513.75
2023-03-02T15:34:20.683Z,102512.91
2023-03-02T15:36:47.149Z,102507.69
2023-03-02T15:39:14.628Z,102507.25
2023-03-02T15:41:44.434Z,102507.97
2023-03-02T15:44:22.959Z,102501.34
2023-03-02T15:46:51.672Z,102514.34
2023-03-02T15:49:23.077Z,102518.78
2023-03-02T15:51:51.921Z,102517.97
2023-03-02T15:54:18.904Z,102511.63
2023-03-02T15:56:45.394Z,102518.34
2023-03-02T15:59:12.049Z,102514.31
2023-03-02T16:01:38.540Z,102521.22
2023-03-02T16:04:05.095Z,102518.97
2023-03-02T16:06:31.573Z,102514.78
2023-03-02T16:08:58.073Z,102527.91
2023-03-02T16:11:24.559Z,102541.44
2023-03-02T16:13:51.775Z,102529.00
2023-03-02T16:16:20.717Z,102526.78
2023-03-02T16:18:54.872Z,102524.38
2023-03-02T16:21:21.782Z,102535.94
2023-03-02T16:23:49.205Z,102529.78
2023-03-02T16:26:19.422Z,102539.28
2023-03-02T16:28:46.253Z,102534.44
2023-03-02T16:31:17.441Z,102534.84
2023-03-02T16:33:44.698Z,102536.22
2023-03-02T16:36:11.560Z,102547.75
2023-03-02T16:38:38.788Z,102547.38
2023-03-02T16:41:13.185Z,102544.97
2023-03-02T16:43:48.395Z,102560.72
2023-03-02T16:46:16.210Z,102556.84
2023-03-02T16:48:43.914Z,102565.19
2023-03-02T16:51:10.671Z,102571.69
2023-03-02T16:53:37.664Z,102577.44
2023-03-02T16:56:04.315Z,102576.34
2023-03-02T16:58:30.802Z,102572.47
2023-03-02T17:00:57.446Z,102585.38
2023-03-02T17:03:24.033Z,102592.72
2023-03-02T17:05:51.248Z,102587.69
2023-03-02T17:08:17.774Z,102594.00
2023-03-02T17:10:44.592Z,102604.69
2023-03-02T17:13:12.355Z,102599.22
2023-03-02T17:15:39.714Z,102606.44
2023-03-02T17:18:06.284Z,102606.16
2023-03-02T17:20:32.874Z,102618.34
2023-03-02T17:23:00.265Z,102621.03
2023-03-02T17:25:26.887Z,102624.25
2023-03-02T17:27:53.402Z,102617.22
2023-03-02T17:30:20.193Z,102631.66
2023-03-02T17:32:47.116Z,102629.47
2023-03-02T17:35:15.277Z,102632.53
2023-03-02T17:37:42.446Z,102639.31
2023-03-02T17:40:13.241Z,102642.19
2023-03-02T17:42:39.809Z,102634.94
2023-03-02T17:45:07.184Z,102641.91
2023-03-02T17:47:34.412Z,102645.09
2023-03-02T17:50:02.882Z,102652.56
2023-03-02T17:52:29.949Z,102648.34
2023-03-02T17:54:56.508Z,102650.16
2023-03-02T17:57:23.190Z,102658.38
2023-03-02T17:59:53.029Z,102655.41
2023-03-02T18:02:19.607Z,102663.31
2023-03-02T18:04:46.062Z,102676.16
2023-03-02T18:07:13.010Z,102669.84
2023-03-02T18:09:39.844Z,102679.53
2023-03-02T18:12:07.592Z,102683.41
2023-03-02T18:14:36.303Z,102682.88
2023-03-02T18:17:04.987Z,102678.03
2023-03-02T18:19:31.655Z,102693.81
2023-03-02T18:21:58.186Z,102698.34
2023-03-02T18:24:25.621Z,102686.66
2023-03-02T18:26:52.135Z,102698.41
2023-03-02T18:29:18.639Z,102700.72
2023-03-02T18:31:45.346Z,102716.28
2023-03-02T18:34:11.802Z,102709.66
2023-03-02T18:36:38.455Z,102702.81
2023-03-02T18:39:04.936Z,102707.22
2023-03-02T18:41:32.424Z,102704.88
2023-03-02T18:44:01.303Z,102709.59
2023-03-02T18:46:30.591Z,102710.88
2023-03-02T18:48:57.828Z,102707.56
2023-03-02T18:51:25.127Z,102726.19
2023-03-02T18:53:51.936Z,102727.31
2023-03-02T18:56:19.068Z,102713.00
2023-03-02T18:58:46.830Z,102717.59
2023-03-02T19:01:13.796Z,102720.22
2023-03-02T19:03:41.911Z,102721.53
2023-03-02T19:06:09.004Z,102722.91
2023-03-02T19:08:36.070Z,102718.03
2023-03-02T19:11:02.611Z,102724.78
2023-03-02T19:13:29.080Z,102725.16
2023-03-02T19:15:55.596Z,102721.50
2023-03-02T19:18:24.276Z,102731.38
2023-03-02T19:20:51.846Z,102731.63
2023-03-02T19:23:18.803Z,102726.22
2023-03-02T19:25:45.648Z,102729.69
2023-03-02T19:28:12.342Z,102732.50
2023-03-02T19:30:40.161Z,102729.13
2023-03-02T19:33:09.238Z,102738.78
2023-03-02T19:35:40.098Z,102732.69
2023-03-02T19:38:07.914Z,102736.44
2023-03-02T19:40:35.343Z,102737.03
2023-03-02T19:43:02.691Z,102738.31
2023-03-02T19:45:32.741Z,102748.25
2023-03-02T19:48:00.879Z,102745.25
2023-03-02T19:50:28.125Z,102746.94
2023-03-02T19:52:55.356Z,102755.00
2023-03-02T19:55:24.229Z,102754.25
2023-03-02T19:57:56.379Z,102756.19
2023-03-02T20:00:23.995Z,102752.75
2023-03-02T20:02:50.633Z,102757.06
2023-03-02T20:05:17.307Z,102751.06
2023-03-02T20:07:43.853Z,102759.13
2023-03-02T20:10:12.813Z,102742.13
2023-03-02T20:12:39.291Z,102748.31
2023-03-02T20:15:06.690Z,102743.06
2023-03-02T20:17:33.845Z,102754.50
2023-03-02T20:20:01.327Z,102748.03
2023-03-02T20:22:27.904Z,102752.16
2023-03-02T20:24:54.436Z,102742.78
2023-03-02T20:27:21.234Z,102752.50
2023-03-02T20:29:48.278Z,102760.75
2023-03-02T20:32:15.069Z,102746.13
2023-03-02T20:34:42.907Z,102757.91
2023-03-02T20:37:11.982Z,102750.97
2023-03-02T20:39:40.776Z,102759.22
2023-03-02T20:42:08.652Z,102760.16
2023-03-02T20:44:36.310Z,102758.66
2023-03-02T20:47:08.253Z,102750.69
2023-03-02T20:49:36.653Z,102761.16
2023-03-02T20:52:05.227Z,102742.06
2023-03-02T20:54:35.002Z,102748.50
2023-03-02T20:57:01.587Z,102745.91
2023-03-02T20:59:28.643Z,102758.06
2023-03-02T21:01:55.373Z,102754.88
2023-03-02T21:04:22.100Z,102753.44
2023-03-02T21:06:51.909Z,102762.16
2023-03-02T21:09:18.739Z,102771.06
2023-03-02T21:11:47.084Z,102765.88
2023-03-02T21:14:14.177Z,102767.75
2023-03-02T21:16:42.677Z,102764.38
2023-03-02T21:19:13.570Z,102768.88
2023-03-02T21:21:42.245Z,102774.22
2023-03-02T21:24:11.530Z,102767.53
2023-03-02T21:26:38.894Z,102777.34
2023-03-02T21:29:05.884Z,102784.00
2023-03-02T21:31:32.713Z,102781.56
2023-03-02T21:34:00.088Z,102780.81
2023-03-02T21:36:27.552Z,102779.88
2023-03-02T21:38:54.363Z,102772.44
2023-03-02T21:41:21.656Z,102769.31
2023-03-02T21:43:48.727Z,102764.81
2023-03-02T21:46:18.997Z,102758.00
2023-03-02T21:48:46.651Z,102757.06
2023-03-02T21:51:13.823Z,102755.72
2023-03-02T21:53:40.569Z,102757.91
2023-03-02T21:56:07.770Z,102759.69
2023-03-02T21:58:34.533Z,102764.84
2023-03-02T22:01:01.039Z,102756.47
2023-03-02T22:03:27.499Z,102766.72
2023-03-02T22:05:54.041Z,102768.56
2023-03-02T22:08:21.427Z,102766.88
2023-03-02T22:10:50.368Z,102768.75
2023-03-02T22:13:23.715Z,102771.44
2023-03-02T22:15:57.912Z,102763.06
2023-03-02T22:18:27.090Z,102769.31
2023-03-02T22:20:53.625Z,102774.81
2023-03-02T22:23:23.331Z,102777.28
2023-03-02T22:25:53.269Z,102767.88
2023-03-02T22:28:22.477Z,102781.75
2023-03-02T22:30:50.959Z,102788.59
2023-03-02T22:33:25.796Z,102799.81
2023-03-02T22:35:59.042Z,102791.38
2023-03-02T22:38:28.421Z,102781.38
2023-03-02T22:40:55.956Z,102781.22
2023-03-02T22:43:26.718Z,102781.22
2023-03-02T22:45:58.281Z,102775.31
2023-03-02T22:48:26.194Z,102778.16
2023-03-02T22:50:52.705Z,102777.56
2023-03-02T22:53:25.034Z,102777.56
2023-03-02T22:56:03.496Z,102772.81
2023-03-02T22:58:42.608Z,102774.63
2023-03-02T23:01:27.783Z,102766.97
2023-03-02T23:04:01.792Z,102776.78
2023-03-02T23:06:31.299Z,102776.25
2023-03-02T23:09:02.796Z,102791.03
2023-03-02T23:11:35.801Z,102787.91
2023-03-02T23:14:11.281Z,102787.19
2023-03-02T23:16:37.804Z,102780.44
2023-03-02T23:19:04.872Z,102783.75
2023-03-02T23:21:41.151Z,102786.69
2023-03-02T23:24:08.797Z,102787.78
2023-03-02T23:26:35.869Z,102791.56
2023-03-02T23:29:02.380Z,102782.34
2023-03-02T23:31:28.961Z,102780.56
2023-03-02T23:33:55.534Z,102784.19
2023-03-02T23:36:22.084Z,102787.78
2023-03-02T23:38:49.615Z,102782.81
2023-03-02T23:41:16.666Z,102788.81
2023-03-02T23:43:43.211Z,102777.66
2023-03-02T23:46:13.984Z,102790.97
2023-03-02T23:48:42.199Z,102783.13
2023-03-02T23:51:09.475Z,102772.88
2023-03-02T23:53:35.990Z,102780.81
2023-03-02T23:56:02.523Z,102779.44
2023-03-02T23:58:29.005Z,102789.91
